Skip Navigation Links Skip Navigation Links

Current Weather

Cuiaba Aeroporto, Cuiaba, Brazil

For information only: do not use for flight planning or navigation.
Latest weather
Observation time Thursday, February 22, 2018 10:00 PM BRT
Local time Thursday, February 22, 2018 11:36 PM BRT
Flight conditions Marginal Visual Meteorological Conditions
Winds
Wind direction East (80°)
Wind speed 2 mph
Visibility 6.2 mi.
Sky condition
Ceiling 2,000 ft. broken clouds
Cloud layer broken clouds 2,000 ft.
Cloud layer broken clouds 10,000 ft.
Temperature 79°F
Dewpoint 75°F
Altimeter 29.88 in.Hg
Derived measurements
Relative humidity 89%
Heat index 79°F
Density altitude 2310 ft.
METAR SBCY 230100Z 08002KT 9999 BKN020 BKN100 26/24 Q1012

Settings

Location code

InnerDrive.Weather 4.0.6615.0 Release CLR 4.0.30319.42000
Copyright ©2018 Inner Drive Technology. All rights reserved. Portions Copyright ©1986-2018 David Braverman.

Find weather

Site navigation


Skip Navigation Links

Place info

Page info

PayPal - The safer, easier way to pay online!

Return home.

Copyright ©2018 Inner Drive Technology. Purveyors of fine, hand-crafted computer software. Page printed 2018-02-23T02:36:14 UTC.